createdAt,value
2019-05-30T00:03:40.504Z,20.85
2019-05-30T00:09:42.765Z,23.05
2019-05-30T00:15:45.065Z,22.40
2019-05-30T00:21:47.395Z,25.48
2019-05-30T00:27:49.730Z,27.55
2019-05-30T00:33:52.054Z,30.02
2019-05-30T00:39:55.696Z,26.60
2019-05-30T00:45:58.026Z,37.28
2019-05-30T00:52:00.597Z,25.35
2019-05-30T00:58:04.841Z,31.97
2019-05-30T01:04:07.248Z,30.95
2019-05-30T01:10:10.294Z,36.15
2019-05-30T01:16:12.611Z,35.48
2019-05-30T01:22:14.983Z,32.98
2019-05-30T01:28:17.371Z,38.17
2019-05-30T01:34:19.704Z,38.75
2019-05-30T01:40:22.426Z,33.63
2019-05-30T01:46:26.732Z,29.00
2019-05-30T01:52:29.134Z,39.55
2019-05-30T01:58:33.195Z,30.43
2019-05-30T02:04:35.470Z,25.90
2019-05-30T02:10:37.929Z,26.50
2019-05-30T02:16:40.335Z,30.50
2019-05-30T02:22:42.700Z,27.65
2019-05-30T02:28:44.946Z,27.82
2019-05-30T02:34:47.332Z,25.17
2019-05-30T02:40:49.673Z,25.45
2019-05-30T02:46:53.879Z,25.30
2019-05-30T02:52:56.200Z,20.60
2019-05-30T02:58:58.482Z,18.45
2019-05-30T03:05:01.656Z,19.82
2019-05-30T03:11:07.065Z,19.95
2019-05-30T03:17:10.231Z,19.62
2019-05-30T03:23:14.705Z,21.20
2019-05-30T03:29:17.290Z,17.27
2019-05-30T03:35:28.519Z,17.42
2019-05-30T03:41:23.656Z,17.23
2019-05-30T03:47:29.178Z,18.60
2019-05-30T03:53:31.582Z,15.10
2019-05-30T03:59:38.977Z,20.37
2019-05-30T04:05:47.423Z,15.28
2019-05-30T04:12:03.655Z,17.98
2019-05-30T04:18:06.977Z,13.90
2019-05-30T04:24:10.221Z,20.45
2019-05-30T04:30:14.389Z,20.10
2019-05-30T04:36:18.958Z,18.90
2019-05-30T04:42:21.272Z,17.92
2019-05-30T04:48:23.450Z,17.45
2019-05-30T04:54:25.672Z,17.30
2019-05-30T05:00:28.029Z,16.00
2019-05-30T05:06:32.436Z,11.73
2019-05-30T05:12:34.689Z,11.33
2019-05-30T05:18:36.989Z,11.68
2019-05-30T05:24:39.166Z,10.25
2019-05-30T05:30:41.400Z,10.72
2019-05-30T05:36:43.649Z,8.50
2019-05-30T05:42:45.954Z,10.88
2019-05-30T05:48:48.239Z,10.00
2019-05-30T05:54:50.532Z,10.80
2019-05-30T06:00:52.760Z,11.40
2019-05-30T06:06:55.124Z,10.70
2019-05-30T06:12:59.704Z,8.33
2019-05-30T06:19:02.109Z,9.70
2019-05-30T06:25:04.817Z,10.25
2019-05-30T06:31:07.250Z,11.83
2019-05-30T06:37:12.040Z,10.48
2019-05-30T06:43:14.414Z,10.48
2019-05-30T06:49:16.933Z,6.47
2019-05-30T06:55:21.082Z,6.22
2019-05-30T07:01:23.829Z,6.60
2019-05-30T07:07:27.052Z,6.35
2019-05-30T07:13:31.647Z,5.00
2019-05-30T07:19:37.135Z,4.40
2019-05-30T07:25:38.215Z,4.78
2019-05-30T07:31:40.497Z,6.40
2019-05-30T07:37:46.420Z,6.78
2019-05-30T07:43:47.468Z,4.20
2019-05-30T07:49:49.765Z,3.27
2019-05-30T07:55:52.065Z,3.98
2019-05-30T08:01:54.298Z,4.92
2019-05-30T08:07:56.670Z,4.10
2019-05-30T08:14:00.286Z,3.70
2019-05-30T08:20:03.302Z,3.85
2019-05-30T08:26:05.829Z,4.35
2019-05-30T08:32:08.282Z,6.40
2019-05-30T08:38:10.589Z,3.15
2019-05-30T08:44:12.914Z,4.17
2019-05-30T08:50:15.142Z,4.45
2019-05-30T08:56:17.513Z,15.55
2019-05-30T09:02:20.029Z,9.10
2019-05-30T09:08:23.962Z,5.10
2019-05-30T09:14:26.374Z,5.87
2019-05-30T09:20:30.848Z,4.75
2019-05-30T09:26:32.835Z,3.30
2019-05-30T09:32:35.617Z,2.90
2019-05-30T09:38:38.858Z,5.25
2019-05-30T09:44:42.251Z,6.72
2019-05-30T09:50:46.739Z,5.00
2019-05-30T09:56:50.655Z,5.85
2019-05-30T10:02:53.299Z,5.28
2019-05-30T10:08:55.554Z,6.00
2019-05-30T10:14:57.965Z,5.65
2019-05-30T10:21:00.304Z,8.68
2019-05-30T10:27:02.716Z,6.03
2019-05-30T10:33:04.899Z,6.00
2019-05-30T10:39:07.279Z,6.97
2019-05-30T10:45:12.147Z,5.90
2019-05-30T10:51:14.298Z,5.92
2019-05-30T10:57:16.557Z,4.72
2019-05-30T11:03:19.907Z,4.90
2019-05-30T11:09:24.502Z,6.30
2019-05-30T11:15:26.691Z,3.87
2019-05-30T11:21:28.997Z,8.95
2019-05-30T11:27:31.331Z,3.33
2019-05-30T11:33:33.624Z,3.10
2019-05-30T11:39:35.964Z,4.10
2019-05-30T11:45:38.521Z,3.17
2019-05-30T11:51:40.729Z,4.80
2019-05-30T11:57:43.330Z,3.92
2019-05-30T12:03:45.584Z,2.47
2019-05-30T12:09:47.859Z,2.33
2019-05-30T12:15:51.450Z,2.90
2019-05-30T12:22:04.184Z,3.37
2019-05-30T12:28:08.661Z,3.62
2019-05-30T12:34:23.836Z,2.95
2019-05-30T12:40:26.095Z,2.52
2019-05-30T12:46:28.307Z,2.95
2019-05-30T12:52:30.508Z,3.77
2019-05-30T12:58:32.935Z,6.22
2019-05-30T13:04:35.192Z,5.67
2019-05-30T13:10:37.480Z,2.45
2019-05-30T13:16:39.657Z,3.45
2019-05-30T13:22:42.284Z,2.55
2019-05-30T13:28:44.436Z,3.17
2019-05-30T13:34:46.785Z,4.17
2019-05-30T13:40:48.977Z,5.85
2019-05-30T13:46:51.304Z,3.10
2019-05-30T13:52:53.526Z,4.15
2019-05-30T13:58:55.896Z,1.72
2019-05-30T14:04:58.231Z,2.90
2019-05-30T14:11:00.666Z,4.00
2019-05-30T14:17:03.013Z,2.55
2019-05-30T14:23:05.527Z,2.87
2019-05-30T14:29:07.929Z,4.97
2019-05-30T14:35:13.615Z,3.62
2019-05-30T14:41:15.335Z,2.90
2019-05-30T14:47:17.485Z,3.58
2019-05-30T14:53:19.849Z,2.17
2019-05-30T14:59:22.228Z,2.80
2019-05-30T15:05:24.751Z,2.80
2019-05-30T15:11:27.603Z,1.30
2019-05-30T15:17:29.864Z,1.92
2019-05-30T15:23:32.179Z,2.67
2019-05-30T15:29:34.497Z,3.35
2019-05-30T15:35:36.779Z,1.98
2019-05-30T15:41:39.071Z,3.20
2019-05-30T15:47:41.322Z,3.62
2019-05-30T15:53:43.529Z,3.30
2019-05-30T15:59:46.923Z,2.52
2019-05-30T16:05:49.150Z,3.40
2019-05-30T16:11:52.640Z,2.17
2019-05-30T16:17:55.074Z,2.40
2019-05-30T16:23:57.407Z,2.10
2019-05-30T16:30:00.019Z,2.33
2019-05-30T16:36:02.560Z,2.12
2019-05-30T16:42:05.038Z,4.10
2019-05-30T16:48:07.882Z,1.55
2019-05-30T16:54:10.230Z,2.95
2019-05-30T17:00:13.220Z,2.58
2019-05-30T17:06:18.249Z,4.90
2019-05-30T17:12:21.657Z,6.10
2019-05-30T17:18:24.341Z,4.55
2019-05-30T17:24:27.248Z,2.90
2019-05-30T17:30:29.724Z,4.33
2019-05-30T17:36:32.076Z,3.87
2019-05-30T17:42:34.400Z,6.95
2019-05-30T17:48:36.968Z,2.60
2019-05-30T17:54:43.302Z,3.43
2019-05-30T18:00:44.967Z,2.98
2019-05-30T18:06:47.327Z,3.92
2019-05-30T18:12:51.082Z,5.33
2019-05-30T18:18:53.947Z,4.12
2019-05-30T18:24:57.354Z,4.50
2019-05-30T18:30:59.838Z,4.95
2019-05-30T18:37:02.309Z,3.40
2019-05-30T18:43:04.820Z,2.85
2019-05-30T18:49:07.499Z,2.60
2019-05-30T18:55:10.129Z,2.00
2019-05-30T19:01:12.417Z,3.10
2019-05-30T19:07:15.070Z,2.20
2019-05-30T19:13:17.293Z,2.77
2019-05-30T19:19:19.888Z,2.40
2019-05-30T19:25:22.539Z,2.05
2019-05-30T19:31:26.554Z,4.87
2019-05-30T19:37:29.030Z,2.92
2019-05-30T19:43:31.766Z,2.58
2019-05-30T19:49:34.675Z,3.00
2019-05-30T19:55:37.545Z,11.53
2019-05-30T20:01:40.209Z,7.72
2019-05-30T20:07:42.559Z,4.53
2019-05-30T20:13:46.063Z,3.70
2019-05-30T20:19:52.753Z,3.40
2019-05-30T20:25:56.021Z,4.03
2019-05-30T20:31:58.560Z,4.47
2019-05-30T20:38:01.675Z,4.50
2019-05-30T20:44:05.320Z,5.55
2019-05-30T20:50:10.788Z,5.53
2019-05-30T20:56:12.979Z,5.22
2019-05-30T21:02:15.276Z,8.35
2019-05-30T21:08:17.620Z,5.33
2019-05-30T21:14:21.157Z,5.72
2019-05-30T21:20:23.664Z,7.83
2019-05-30T21:26:26.040Z,5.90
2019-05-30T21:32:28.590Z,6.17
2019-05-30T21:38:30.863Z,8.28
2019-05-30T21:44:33.175Z,6.35
2019-05-30T21:50:35.467Z,5.75
2019-05-30T21:56:37.625Z,7.45
2019-05-30T22:02:42.316Z,7.05
2019-05-30T22:08:45.405Z,9.25
2019-05-30T22:14:47.866Z,6.75
2019-05-30T22:20:49.989Z,6.97
2019-05-30T22:26:52.618Z,10.53
2019-05-30T22:32:55.265Z,7.60
2019-05-30T22:38:57.631Z,12.28
2019-05-30T22:45:02.124Z,7.78
2019-05-30T22:51:04.530Z,7.65
2019-05-30T22:57:06.760Z,8.25
2019-05-30T23:03:09.018Z,9.35
2019-05-30T23:09:11.251Z,11.00
2019-05-30T23:15:13.510Z,7.87
2019-05-30T23:21:15.655Z,8.93
2019-05-30T23:27:18.028Z,8.45
2019-05-30T23:33:20.289Z,8.25
2019-05-30T23:39:22.588Z,8.25
2019-05-30T23:45:24.923Z,10.32
2019-05-30T23:51:27.292Z,6.78
2019-05-30T23:57:29.460Z,7.97
